Paducah, KY (42003)

2:21 PM CDT on March 30, 2017 (GMT -0500)
| | Change Station

Elev -9999 ft 0.00 °N, 0.00 °E | Updated 11 minutes ago

Mostly Cloudy
Mostly Cloudy
°F
Feels Like °F
N
Wind Variable Wind from North
Gusts mph

Today
High -- | Low -- °F
--% Chance of Precip.
Yesterday
High -- | Low -- °F
Precip. -- in
Pressure 29.53 in
Visibility 10.0 miles
Clouds Few 4800 ft
Scattered Clouds 6000 ft
Dew Point Not available.
Humidity Not available.
Rainfall --
Snow Depth Not available.
6:42 AM 7:15 PM
Waxing Crescent, 10% visible
METAR KPAH 301853Z 19017G27KT 10SM FEW048 SCT060 25/12 A2954 RMK AO2 PK WND 23030/1809 LTG DSNT N SLP998 T02500122
Pressure 29.53 in
Visibility 10.0 miles
Clouds Few 4800 ft
Scattered Clouds 6000 ft
Dew Point Not available.
Humidity Not available.
Rainfall --
Snow Depth Not available.
6:42 AM 7:15 PM
Waxing Crescent, 10% visible
METAR KPAH 301853Z 19017G27KT 10SM FEW048 SCT060 25/12 A2954 RMK AO2 PK WND 23030/1809 LTG DSNT N SLP998 T02500122

Get Your Daily Forecast Email!

Thanks for signing up!

Be on the lookout for a verification email in your inbox.

You'll start receiving severe weather alerts in your inbox..

×

10-Day Weather Forecast

Almanac

Astronomy

Mar. 30, 2017 Rise Set
Actual Time
Civil Twilight
Nautical Twilight
Astronomical Twilight
Moon
Length of Visible Light
Length of Day
Tomorrow will be .
, % of the Moon is Illuminated

Today's Extremes

State Highs State Lows

Community

WunderPhotos

Upload Photos

1,962,540 photos uploaded!

WunderBlog® & News

Nearby

Air Quality

  Air Quality AQ Index Pollutant
Not available.

Snow Depth

Station Depth Elevation

Earthquake Activity

City Distance Mag. Time & Date
Minimum magnitude displayed is 2.5.

Earthquake Activity

City Distance Mag. Time & Date
Minimum magnitude displayed is 2.5.

Coastal Water Temperatures

Place Temperature

Stations

Nearby Weather Stations

Station Location Temp. Windchill Dew Point Humidity Wind Precip. Elev Updated Type
                   

Watches & Warnings

Severe Thunderstorm Watch
Issued: 2:03 PM CDT Mar. 30, 2017 – National Weather Service

Severe Thunderstorm Watch 103 remains in effect until 800 PM CDT

KY
. Kentucky counties included are

Ballard Caldwell Calloway
Carlisle Crittenden Fulton
Graves Hickman Livingston
Lyon McCracken Marshall
Trigg Union